createdAt,value
2022-08-11T00:00:51.724Z,12.8
2022-08-11T00:05:50.059Z,12.6
2022-08-11T00:10:48.202Z,12.4
2022-08-11T00:15:46.200Z,12.4
2022-08-11T00:20:44.267Z,12.4
2022-08-11T00:25:42.239Z,12.4
2022-08-11T00:30:40.369Z,12.4
2022-08-11T00:35:50.707Z,12.4
2022-08-11T00:40:36.588Z,12.4
2022-08-11T00:45:34.942Z,12.4
2022-08-11T00:50:33.092Z,12.4
2022-08-11T00:55:31.171Z,12.4
2022-08-11T01:00:29.086Z,12.5
2022-08-11T01:05:27.519Z,12.6
2022-08-11T01:10:25.603Z,12.6
2022-08-11T01:15:23.836Z,12.6
2022-08-11T01:20:48.289Z,12.6
2022-08-11T01:25:20.178Z,12.6
2022-08-11T01:30:18.091Z,12.5
2022-08-11T01:35:16.188Z,12.3
2022-08-11T01:40:14.177Z,12.3
2022-08-11T01:45:12.148Z,12.1
2022-08-11T01:50:10.565Z,12.1
2022-08-11T01:55:08.221Z,12
2022-08-11T02:00:06.319Z,12
2022-08-11T02:05:04.170Z,11.9
2022-08-11T02:10:02.155Z,11.8
2022-08-11T02:15:04.895Z,11.7
2022-08-11T02:19:57.941Z,11.6
2022-08-11T02:24:55.989Z,11.6
2022-08-11T02:29:54.069Z,11.7
2022-08-11T02:34:59.345Z,11.7
2022-08-11T02:39:50.652Z,11.7
2022-08-11T02:44:48.712Z,11.8
2022-08-11T02:49:46.858Z,11.9
2022-08-11T02:54:45.101Z,12
2022-08-11T02:59:43.053Z,12
2022-08-11T03:04:41.202Z,11.9
2022-08-11T03:09:39.253Z,12
2022-08-11T03:14:37.502Z,11.9
2022-08-11T03:19:35.818Z,11.9
2022-08-11T03:24:34.000Z,11.9
2022-08-11T03:29:32.098Z,12
2022-08-11T03:34:30.169Z,12.1
2022-08-11T03:39:28.236Z,12.1
2022-08-11T03:44:26.563Z,12.4
2022-08-11T03:49:25.434Z,13.4
2022-08-11T03:54:24.027Z,13.8
2022-08-11T03:59:23.070Z,15.6
2022-08-11T04:04:21.795Z,15.6
2022-08-11T04:09:20.093Z,16.1
2022-08-11T04:14:19.712Z,18.2
2022-08-11T04:19:21.101Z,20.9
2022-08-11T04:24:37.469Z,22.5
2022-08-11T04:29:19.678Z,23.2
2022-08-11T04:34:18.659Z,23.2
2022-08-11T04:39:17.498Z,24.2
2022-08-11T04:44:15.187Z,23.6
2022-08-11T04:49:13.647Z,24.8
2022-08-11T04:54:11.686Z,24.4
2022-08-11T04:59:09.835Z,24.4
2022-08-11T05:04:07.024Z,23.8
2022-08-11T05:09:05.847Z,24.7
2022-08-11T05:14:04.646Z,25.2
2022-08-11T05:19:03.333Z,25.5
2022-08-11T05:24:02.030Z,25.6
2022-08-11T05:29:00.981Z,26.4
2022-08-11T05:33:58.973Z,26.8
2022-08-11T05:38:56.551Z,27.1
2022-08-11T05:44:19.549Z,27.8
2022-08-11T05:48:54.134Z,28.8
2022-08-11T05:53:52.839Z,29.8
2022-08-11T05:58:51.328Z,30.7
2022-08-11T06:03:56.617Z,31.5
2022-08-11T06:08:48.328Z,31.5
2022-08-11T06:13:46.733Z,31.6
2022-08-11T06:18:45.370Z,31.8
2022-08-11T06:23:44.486Z,32.2
2022-08-11T06:28:43.115Z,32.8
2022-08-11T06:33:41.074Z,32.3
2022-08-11T06:38:38.614Z,32.3
2022-08-11T06:43:36.678Z,33
2022-08-11T06:48:35.815Z,33.3
2022-08-11T06:53:33.981Z,33.2
2022-08-11T06:58:32.252Z,33.3
2022-08-11T07:03:31.056Z,34.6
2022-08-11T07:08:33.479Z,32.7
2022-08-11T07:13:38.145Z,34.6
2022-08-11T07:18:26.082Z,35.9
2022-08-11T07:23:24.027Z,35.6
2022-08-11T07:28:21.824Z,35.5
2022-08-11T07:34:04.943Z,36.1
2022-08-11T07:38:22.604Z,35.6
2022-08-11T07:43:15.433Z,35.6
2022-08-11T07:48:13.636Z,35.9
2022-08-11T07:53:09.751Z,32.9
2022-08-11T07:58:15.691Z,36.2
2022-08-11T08:03:09.832Z,37.2
2022-08-11T08:08:08.924Z,37.7
2022-08-11T08:13:06.940Z,38.3
2022-08-11T08:18:08.585Z,34.9
2022-08-11T08:23:02.913Z,37.5
2022-08-11T08:28:03.232Z,38.2
2022-08-11T08:33:00.612Z,34.4
2022-08-11T08:37:57.951Z,35.8
2022-08-11T08:42:50.844Z,29.9
2022-08-11T08:47:53.310Z,32.6
2022-08-11T08:52:55.322Z,36.7
2022-08-11T08:57:53.115Z,34.7
2022-08-11T09:02:52.754Z,37.5
2022-08-11T09:07:51.730Z,37
2022-08-11T09:12:47.027Z,36.1
2022-08-11T09:17:45.722Z,36.6
2022-08-11T09:22:42.141Z,33.2
2022-08-11T09:27:35.521Z,31.1
2022-08-11T09:32:38.772Z,36
2022-08-11T09:37:55.023Z,38.7
2022-08-11T09:42:36.816Z,33.4
2022-08-11T09:47:38.375Z,37.6
2022-08-11T09:52:37.026Z,37.3
2022-08-11T09:57:34.957Z,38.8
2022-08-11T10:02:27.478Z,30.9
2022-08-11T10:07:24.515Z,34.7
2022-08-11T10:12:27.131Z,37.6
2022-08-11T10:17:25.886Z,39.1
2022-08-11T10:22:23.986Z,37.3
2022-08-11T10:27:19.116Z,32.2
2022-08-11T10:32:14.725Z,34.1
2022-08-11T10:37:16.637Z,36.6
2022-08-11T10:42:25.753Z,37.7
2022-08-11T10:47:14.121Z,38.1
2022-08-11T10:52:12.718Z,37.3
2022-08-11T10:57:08.657Z,36.4
2022-08-11T11:02:06.822Z,36.9
2022-08-11T11:07:06.395Z,37.6
2022-08-11T11:12:04.413Z,36
2022-08-11T11:17:02.311Z,37.1
2022-08-11T11:22:00.777Z,37.8
2022-08-11T11:26:58.754Z,36.8
2022-08-11T11:31:56.251Z,37.3
2022-08-11T11:36:54.733Z,36.9
2022-08-11T11:41:53.257Z,37.7
2022-08-11T11:46:51.115Z,37.4
2022-08-11T11:51:50.169Z,36.2
2022-08-11T11:56:46.483Z,37.4
2022-08-11T12:01:50.168Z,37
2022-08-11T12:06:43.270Z,37.1
2022-08-11T12:11:40.600Z,36.7
2022-08-11T12:16:38.514Z,36.9
2022-08-11T12:21:37.055Z,36.8
2022-08-11T12:26:35.105Z,36.6
2022-08-11T12:31:32.367Z,35.9
2022-08-11T12:36:30.616Z,36.5
2022-08-11T12:41:28.066Z,35.3
2022-08-11T12:46:26.549Z,36.2
2022-08-11T12:51:24.504Z,35.5
2022-08-11T12:56:22.642Z,35.5
2022-08-11T13:01:18.760Z,32.1
2022-08-11T13:06:17.991Z,34.7
2022-08-11T13:11:16.851Z,34.5
2022-08-11T13:16:14.533Z,34.3
2022-08-11T13:21:11.774Z,33.9
2022-08-11T13:26:09.539Z,33.3
2022-08-11T13:31:09.177Z,33.6
2022-08-11T13:36:06.956Z,33.1
2022-08-11T13:41:04.583Z,31.8
2022-08-11T13:46:02.278Z,31.9
2022-08-11T13:51:00.697Z,32.6
2022-08-11T13:55:58.914Z,32.3
2022-08-11T14:00:57.296Z,31.4
2022-08-11T14:05:54.987Z,30.7
2022-08-11T14:10:51.687Z,29.9
2022-08-11T14:15:49.846Z,29.1
2022-08-11T14:20:47.383Z,29
2022-08-11T14:25:59.270Z,28.4
2022-08-11T14:30:43.330Z,28.5
2022-08-11T14:35:43.142Z,27.9
2022-08-11T14:40:39.031Z,27.2
2022-08-11T14:45:54.447Z,27.5
2022-08-11T14:50:36.110Z,27.5
2022-08-11T14:55:34.083Z,27
2022-08-11T15:00:32.319Z,26.6
2022-08-11T15:05:30.087Z,26.5
2022-08-11T15:10:28.421Z,26.2
2022-08-11T15:15:26.444Z,26.2
2022-08-11T15:20:24.684Z,26
2022-08-11T15:25:22.707Z,25.4
2022-08-11T15:30:20.977Z,25
2022-08-11T15:35:18.839Z,24.8
2022-08-11T15:40:30.190Z,24.7
2022-08-11T15:45:15.195Z,24.6
2022-08-11T15:50:17.325Z,24.9
2022-08-11T15:55:15.068Z,25.2
2022-08-11T16:00:13.217Z,24.8
2022-08-11T16:05:11.853Z,25
2022-08-11T16:10:09.853Z,24.9
2022-08-11T16:15:08.171Z,25
2022-08-11T16:20:06.114Z,24.7
2022-08-11T16:26:17.706Z,23.9
2022-08-11T16:30:01.625Z,23.6
2022-08-11T16:34:59.538Z,23.4
2022-08-11T16:39:57.755Z,22.9
2022-08-11T16:44:55.594Z,22.7
2022-08-11T16:49:53.694Z,22.2
2022-08-11T16:54:52.640Z,22.1
2022-08-11T16:59:51.931Z,22.2
2022-08-11T17:04:48.108Z,21.9
2022-08-11T17:09:46.006Z,21.7
2022-08-11T17:14:43.864Z,21.5
2022-08-11T17:20:38.161Z,21.2
2022-08-11T17:24:42.805Z,21
2022-08-11T17:29:54.210Z,20.7
2022-08-11T17:34:38.959Z,20.5
2022-08-11T17:39:37.002Z,20.3
2022-08-11T17:44:34.913Z,20.2
2022-08-11T17:49:32.743Z,20.1
2022-08-11T17:54:30.828Z,20
2022-08-11T17:59:32.338Z,19.8
2022-08-11T18:04:27.162Z,19.6
2022-08-11T18:09:25.420Z,19.5
2022-08-11T18:14:23.681Z,19.4
2022-08-11T18:19:22.038Z,19.4
2022-08-11T18:24:20.037Z,19.4
2022-08-11T18:29:18.158Z,19.4
2022-08-11T18:34:16.304Z,19.1
2022-08-11T18:39:14.191Z,19.2
2022-08-11T18:44:12.480Z,19.3
2022-08-11T18:49:14.636Z,19.2
2022-08-11T18:54:08.806Z,19.2
2022-08-11T18:59:07.030Z,19.1
2022-08-11T19:04:10.680Z,18.7
2022-08-11T19:09:02.938Z,18.2
2022-08-11T19:14:00.952Z,17.9
2022-08-11T19:18:59.142Z,17.8
2022-08-11T19:23:57.504Z,17.8
2022-08-11T19:28:56.316Z,18.5
2022-08-11T19:34:00.573Z,18.6
2022-08-11T19:38:52.930Z,18.7
2022-08-11T19:43:51.075Z,19
2022-08-11T19:48:49.693Z,19.6
2022-08-11T19:53:47.795Z,19.3
2022-08-11T19:58:45.573Z,19.1
2022-08-11T20:03:43.758Z,18.9
2022-08-11T20:08:41.765Z,18.7
2022-08-11T20:13:41.576Z,18.6
2022-08-11T20:18:37.884Z,18.4
2022-08-11T20:23:36.233Z,18.2
2022-08-11T20:28:34.386Z,18.1
2022-08-11T20:33:32.626Z,17.9
2022-08-11T20:38:30.675Z,17.8
2022-08-11T20:44:05.284Z,17.5
2022-08-11T20:48:26.617Z,17
2022-08-11T20:53:24.422Z,16.9
2022-08-11T20:58:25.918Z,16.7
2022-08-11T21:03:30.198Z,16.5
2022-08-11T21:08:18.247Z,16.3
2022-08-11T21:13:24.406Z,16.3
2022-08-11T21:18:27.597Z,16.1
2022-08-11T21:23:16.110Z,16.1
2022-08-11T21:28:10.727Z,16
2022-08-11T21:33:08.993Z,16.1
2022-08-11T21:38:07.308Z,16.5
2022-08-11T21:43:05.697Z,16.8
2022-08-11T21:48:04.054Z,17
2022-08-11T21:53:02.177Z,17.1
2022-08-11T21:58:00.670Z,17.3
2022-08-11T22:02:58.678Z,17.5
2022-08-11T22:07:57.082Z,17.6
2022-08-11T22:12:55.018Z,17.5
2022-08-11T22:17:57.396Z,17.5
2022-08-11T22:22:53.677Z,17.6
2022-08-11T22:27:50.119Z,17.6
2022-08-11T22:32:48.318Z,17.4
2022-08-11T22:37:46.445Z,17.5
2022-08-11T22:42:44.967Z,17.5
2022-08-11T22:47:43.134Z,17.5
2022-08-11T22:52:41.593Z,17.5
2022-08-11T22:57:38.997Z,17.4
2022-08-11T23:02:37.156Z,17.4
2022-08-11T23:07:50.613Z,17.4
2022-08-11T23:12:33.374Z,17.4
2022-08-11T23:17:31.590Z,17.3
2022-08-11T23:22:33.699Z,17.3
2022-08-11T23:27:27.932Z,17.3
2022-08-11T23:32:26.185Z,17.2
2022-08-11T23:37:24.486Z,17.3
2022-08-11T23:42:22.549Z,17.5
2022-08-11T23:47:20.585Z,17.5
2022-08-11T23:52:18.594Z,17.4
2022-08-11T23:57:16.803Z,17.5
